createdAt,value
2017-05-31T00:00:14.582Z,6.00
2017-05-31T00:01:15.556Z,6.00
2017-05-31T00:02:16.283Z,6.00
2017-05-31T00:03:17.003Z,3.00
2017-05-31T00:04:17.729Z,6.00
2017-05-31T00:05:18.453Z,6.00
2017-05-31T00:06:19.430Z,5.00
2017-05-31T00:07:20.179Z,5.00
2017-05-31T00:08:20.902Z,5.00
2017-05-31T00:09:21.627Z,5.00
2017-05-31T00:10:22.350Z,5.00
2017-05-31T00:11:23.323Z,4.00
2017-05-31T00:12:24.046Z,6.00
2017-05-31T00:13:24.769Z,6.00
2017-05-31T00:14:25.496Z,5.00
2017-05-31T00:15:26.220Z,5.00
2017-05-31T00:16:27.193Z,5.00
2017-05-31T00:17:27.919Z,7.00
2017-05-31T00:18:28.643Z,5.00
2017-05-31T00:19:29.394Z,5.00
2017-05-31T00:20:30.116Z,5.00
2017-05-31T00:21:31.116Z,5.00
2017-05-31T00:22:31.840Z,5.00
2017-05-31T00:23:32.589Z,5.00
2017-05-31T00:24:33.334Z,5.00
2017-05-31T00:25:34.059Z,4.00
2017-05-31T00:26:35.031Z,6.00
2017-05-31T00:27:35.755Z,6.00
2017-05-31T00:28:36.479Z,5.00
2017-05-31T00:29:37.201Z,6.00
2017-05-31T00:30:37.925Z,5.00
2017-05-31T00:31:38.901Z,6.00
2017-05-31T00:32:39.625Z,6.00
2017-05-31T00:33:40.351Z,6.00
2017-05-31T00:34:41.072Z,5.00
2017-05-31T00:35:41.793Z,5.00
2017-05-31T00:36:42.793Z,5.00
2017-05-31T00:37:43.515Z,7.00
2017-05-31T00:38:44.241Z,6.00
2017-05-31T00:39:44.966Z,6.00
2017-05-31T00:40:45.714Z,7.00
2017-05-31T00:41:46.690Z,7.00
2017-05-31T00:42:47.415Z,5.00
2017-05-31T00:43:48.140Z,4.00
2017-05-31T00:44:48.862Z,6.00
2017-05-31T00:45:49.586Z,8.00
2017-05-31T00:46:50.561Z,7.00
2017-05-31T00:47:51.287Z,5.00
2017-05-31T00:48:52.012Z,6.00
2017-05-31T00:49:52.760Z,6.00
2017-05-31T00:50:53.482Z,6.00
2017-05-31T00:51:54.455Z,5.00
2017-05-31T00:52:55.181Z,7.00
2017-05-31T00:53:55.904Z,5.00
2017-05-31T00:54:56.631Z,6.00
2017-05-31T00:56:58.228Z,6.00
2017-05-31T00:57:58.956Z,6.00
2017-05-31T00:58:59.678Z,6.00
2017-05-31T01:00:00.405Z,7.00
2017-05-31T01:01:01.130Z,8.00
2017-05-31T01:02:02.105Z,5.00
2017-05-31T01:03:02.852Z,5.00
2017-05-31T01:04:03.603Z,6.00
2017-05-31T01:05:04.328Z,5.00
2017-05-31T01:06:05.057Z,6.00
2017-05-31T01:07:06.061Z,6.00
2017-05-31T01:08:06.785Z,8.00
2017-05-31T01:09:07.511Z,8.00
2017-05-31T01:10:08.262Z,8.00
2017-05-31T01:11:08.990Z,4.00
2017-05-31T01:12:09.966Z,7.00
2017-05-31T01:13:10.698Z,6.00
2017-05-31T01:14:11.421Z,6.00
2017-05-31T01:15:12.141Z,6.00
2017-05-31T01:16:12.865Z,6.00
2017-05-31T01:17:13.842Z,7.00
2017-05-31T01:18:14.569Z,6.00
2017-05-31T01:19:15.292Z,6.00
2017-05-31T01:20:16.019Z,6.00
2017-05-31T01:21:16.742Z,6.00
2017-05-31T01:22:17.717Z,5.00
2017-05-31T01:23:18.441Z,7.00
2017-05-31T01:24:19.165Z,8.00
2017-05-31T01:25:19.889Z,7.00
2017-05-31T01:26:20.617Z,8.00
2017-05-31T01:27:21.592Z,6.00
2017-05-31T01:28:22.318Z,6.00
2017-05-31T01:29:23.068Z,5.00
2017-05-31T01:30:23.795Z,6.00
2017-05-31T01:31:24.518Z,6.00
2017-05-31T01:32:25.502Z,5.00
2017-05-31T01:33:26.223Z,6.00
2017-05-31T01:34:26.970Z,7.00
2017-05-31T01:35:27.698Z,8.00
2017-05-31T01:36:28.424Z,7.00
2017-05-31T01:37:29.398Z,6.00
2017-05-31T01:38:30.121Z,6.00
2017-05-31T01:39:30.848Z,6.00
2017-05-31T01:40:31.572Z,7.00
2017-05-31T01:41:32.297Z,7.00
2017-05-31T01:42:33.274Z,8.00
2017-05-31T01:43:34.002Z,8.00
2017-05-31T01:44:34.725Z,7.00
2017-05-31T01:45:35.450Z,7.00
2017-05-31T01:46:36.173Z,6.00
2017-05-31T01:47:37.151Z,7.00
2017-05-31T01:48:37.874Z,7.00
2017-05-31T01:49:38.625Z,6.00
2017-05-31T01:50:39.377Z,5.00
2017-05-31T01:51:40.100Z,7.00
2017-05-31T01:52:41.075Z,7.00
2017-05-31T01:53:41.803Z,8.00
2017-05-31T01:54:42.523Z,6.00
2017-05-31T01:55:43.247Z,6.00
2017-05-31T01:56:43.975Z,7.00
2017-05-31T01:57:44.951Z,7.00
2017-05-31T01:58:45.678Z,6.00
2017-05-31T01:59:46.403Z,6.00
2017-05-31T02:00:47.153Z,7.00
2017-05-31T02:01:47.877Z,7.00
2017-05-31T02:02:48.852Z,6.00
2017-05-31T02:03:49.578Z,7.00
2017-05-31T02:04:50.305Z,6.00
2017-05-31T02:05:51.027Z,7.00
2017-05-31T02:06:51.776Z,7.00
2017-05-31T02:07:52.751Z,8.00
2017-05-31T02:08:53.476Z,8.00
2017-05-31T02:09:54.200Z,6.00
2017-05-31T02:10:54.923Z,6.00
2017-05-31T02:11:55.648Z,7.00
2017-05-31T02:12:56.624Z,6.00
2017-05-31T02:13:57.351Z,6.00
2017-05-31T02:14:58.076Z,7.00
2017-05-31T02:15:58.800Z,6.00
2017-05-31T02:16:59.524Z,7.00
2017-05-31T02:18:00.498Z,7.00
2017-05-31T02:19:01.225Z,7.00
2017-05-31T02:20:01.953Z,8.00
2017-05-31T02:21:02.676Z,7.00
2017-05-31T02:22:03.422Z,7.00
2017-05-31T02:23:04.396Z,7.00
2017-05-31T02:24:05.123Z,7.00
2017-05-31T02:25:05.846Z,7.00
2017-05-31T02:26:06.568Z,8.00
2017-05-31T02:27:07.293Z,9.00
2017-05-31T02:28:08.266Z,7.00
2017-05-31T02:29:08.993Z,7.00
2017-05-31T02:30:09.716Z,7.00
2017-05-31T02:31:10.468Z,9.00
2017-05-31T02:32:11.192Z,6.00
2017-05-31T02:33:12.169Z,6.00
2017-05-31T02:34:12.893Z,8.00
2017-05-31T02:35:13.643Z,7.00
2017-05-31T02:36:14.371Z,6.00
2017-05-31T02:37:15.093Z,7.00
2017-05-31T02:38:16.065Z,7.00
2017-05-31T02:39:16.825Z,9.00
2017-05-31T02:40:17.560Z,8.00
2017-05-31T02:41:18.285Z,6.00
2017-05-31T02:42:19.013Z,8.00
2017-05-31T02:43:19.989Z,7.00
2017-05-31T02:44:20.715Z,8.00
2017-05-31T02:45:21.440Z,8.00
2017-05-31T02:46:22.166Z,7.00
2017-05-31T02:47:22.889Z,6.00
2017-05-31T02:48:23.866Z,9.00
2017-05-31T02:49:24.592Z,7.00
2017-05-31T02:50:25.315Z,8.00
2017-05-31T02:51:26.038Z,9.00
2017-05-31T02:52:26.763Z,6.00
2017-05-31T02:53:27.764Z,6.00
2017-05-31T02:54:28.488Z,6.00
2017-05-31T02:55:29.215Z,7.00
2017-05-31T02:56:29.943Z,8.00
2017-05-31T02:57:30.667Z,8.00
2017-05-31T02:58:31.644Z,10.00
2017-05-31T02:59:32.373Z,6.00
2017-05-31T03:00:33.097Z,8.00
2017-05-31T03:01:33.821Z,7.00
2017-05-31T03:02:34.571Z,7.00
2017-05-31T03:03:35.550Z,9.00
2017-05-31T03:04:36.276Z,7.00
2017-05-31T03:05:37.027Z,6.00
2017-05-31T03:06:37.752Z,9.00
2017-05-31T03:07:38.481Z,7.00
2017-05-31T03:08:39.456Z,7.00
2017-05-31T03:09:40.182Z,9.00
2017-05-31T03:10:40.909Z,7.00
2017-05-31T03:11:41.638Z,7.00
2017-05-31T03:12:42.366Z,6.00
2017-05-31T03:13:43.342Z,8.00
2017-05-31T03:14:44.067Z,7.00
2017-05-31T03:15:44.796Z,8.00
2017-05-31T03:16:45.523Z,7.00
2017-05-31T03:17:46.252Z,6.00
2017-05-31T03:18:47.227Z,6.00
2017-05-31T03:19:47.951Z,6.00
2017-05-31T03:20:48.679Z,8.00
2017-05-31T03:21:49.407Z,9.00
2017-05-31T03:22:50.135Z,7.00
2017-05-31T03:23:51.110Z,7.00
2017-05-31T03:24:51.838Z,8.00
2017-05-31T03:25:52.565Z,8.00
2017-05-31T03:26:53.294Z,7.00
2017-05-31T03:27:54.022Z,7.00
2017-05-31T03:28:55.002Z,6.00
2017-05-31T03:29:55.732Z,7.00
2017-05-31T03:30:56.460Z,6.00
2017-05-31T03:31:57.187Z,9.00
2017-05-31T03:32:57.939Z,6.00
2017-05-31T03:33:58.918Z,6.00
2017-05-31T03:34:59.648Z,7.00
2017-05-31T03:36:00.375Z,9.00
2017-05-31T03:37:01.106Z,5.00
2017-05-31T03:38:01.834Z,7.00
2017-05-31T03:39:02.810Z,8.00
2017-05-31T03:40:03.537Z,9.00
2017-05-31T03:41:04.266Z,6.00
2017-05-31T03:42:04.995Z,7.00
2017-05-31T03:43:05.722Z,6.00
2017-05-31T03:44:06.701Z,8.00
2017-05-31T03:45:07.429Z,7.00
2017-05-31T03:46:08.155Z,8.00
2017-05-31T03:47:08.884Z,7.00
2017-05-31T03:48:09.635Z,7.00
2017-05-31T03:49:10.614Z,9.00
2017-05-31T03:50:11.342Z,7.00
2017-05-31T03:51:12.071Z,8.00
2017-05-31T03:52:12.798Z,8.00
2017-05-31T03:53:13.529Z,9.00
2017-05-31T03:54:14.504Z,6.00
2017-05-31T03:55:15.237Z,7.00
2017-05-31T03:56:15.968Z,8.00
2017-05-31T03:57:16.694Z,8.00
2017-05-31T03:58:17.424Z,8.00
2017-05-31T03:59:18.402Z,7.00
2017-05-31T04:00:19.155Z,7.00
2017-05-31T04:01:19.884Z,8.00
2017-05-31T04:02:20.609Z,7.00
2017-05-31T04:03:21.340Z,8.00
2017-05-31T04:04:22.317Z,7.00
2017-05-31T04:05:23.047Z,9.00
2017-05-31T04:06:23.773Z,9.00
2017-05-31T04:07:24.504Z,7.00
2017-05-31T04:08:25.261Z,9.00
2017-05-31T04:09:26.268Z,8.00
2017-05-31T04:10:26.996Z,8.00
2017-05-31T04:11:27.727Z,8.00
2017-05-31T04:12:28.456Z,9.00
2017-05-31T04:13:29.210Z,10.00
2017-05-31T04:14:30.191Z,9.00
2017-05-31T04:15:30.918Z,8.00
2017-05-31T04:16:31.646Z,8.00
2017-05-31T04:17:32.377Z,8.00
2017-05-31T04:18:33.109Z,9.00
2017-05-31T04:19:34.087Z,8.00
2017-05-31T04:20:34.817Z,9.00
2017-05-31T04:21:35.543Z,9.00
2017-05-31T04:22:36.275Z,9.00
2017-05-31T04:23:37.005Z,9.00
2017-05-31T04:24:37.987Z,8.00
2017-05-31T04:25:38.717Z,9.00
2017-05-31T04:26:39.446Z,8.00
2017-05-31T04:27:40.179Z,8.00
2017-05-31T04:28:40.905Z,8.00
2017-05-31T04:29:41.884Z,8.00
2017-05-31T04:30:42.611Z,9.00
2017-05-31T04:31:43.343Z,9.00
2017-05-31T04:32:44.074Z,7.00
2017-05-31T04:33:44.806Z,9.00
2017-05-31T04:34:45.784Z,9.00
2017-05-31T04:35:46.539Z,8.00
2017-05-31T04:36:47.271Z,9.00
2017-05-31T04:37:48.001Z,9.00
2017-05-31T04:38:48.734Z,10.00
2017-05-31T04:39:49.713Z,10.00
2017-05-31T04:40:50.445Z,10.00
2017-05-31T04:41:51.184Z,10.00
2017-05-31T04:42:51.904Z,9.00
2017-05-31T04:43:52.636Z,9.00
2017-05-31T04:44:53.617Z,8.00
2017-05-31T04:45:54.346Z,11.00
2017-05-31T04:46:55.075Z,9.00
2017-05-31T04:47:55.805Z,9.00
2017-05-31T04:48:56.534Z,7.00
2017-05-31T04:49:57.516Z,7.00
2017-05-31T04:50:58.247Z,9.00
2017-05-31T04:51:58.977Z,10.00
2017-05-31T04:52:59.709Z,10.00
2017-05-31T04:54:00.439Z,10.00
2017-05-31T04:55:01.422Z,8.00
2017-05-31T04:56:02.153Z,12.00
2017-05-31T04:57:02.885Z,9.00
2017-05-31T04:58:03.618Z,9.00
2017-05-31T04:59:04.349Z,8.00
2017-05-31T05:00:05.329Z,10.00
2017-05-31T05:01:06.061Z,12.00
2017-05-31T05:02:06.793Z,10.00
2017-05-31T05:03:07.527Z,9.00
2017-05-31T05:04:08.259Z,9.00
2017-05-31T05:05:09.240Z,10.00
2017-05-31T05:06:09.976Z,11.00
2017-05-31T05:07:10.708Z,9.00
2017-05-31T05:08:11.465Z,10.00
2017-05-31T05:09:12.199Z,11.00
2017-05-31T05:10:13.184Z,10.00
2017-05-31T05:11:13.912Z,9.00
2017-05-31T05:12:14.646Z,11.00
2017-05-31T05:13:15.406Z,12.00
2017-05-31T05:14:16.140Z,11.00
2017-05-31T05:15:17.134Z,11.00
2017-05-31T05:16:17.853Z,10.00
2017-05-31T05:17:18.588Z,10.00
2017-05-31T05:18:19.321Z,10.00
2017-05-31T05:19:20.052Z,10.00
2017-05-31T05:20:21.035Z,11.00
2017-05-31T05:21:21.767Z,10.00
2017-05-31T05:22:22.499Z,9.00
2017-05-31T05:23:23.258Z,14.00
2017-05-31T05:24:23.993Z,11.00
2017-05-31T05:25:24.973Z,9.00
2017-05-31T05:26:25.822Z,11.00
2017-05-31T05:27:26.580Z,9.00
2017-05-31T05:28:27.312Z,9.00
2017-05-31T05:29:28.045Z,11.00
2017-05-31T05:30:29.027Z,10.00
2017-05-31T05:31:29.790Z,9.00
2017-05-31T05:32:30.517Z,9.00
2017-05-31T05:33:31.252Z,10.00
2017-05-31T05:34:31.987Z,12.00
2017-05-31T05:35:32.970Z,14.00
2017-05-31T05:36:33.703Z,9.00
2017-05-31T05:37:34.433Z,11.00
2017-05-31T05:38:35.166Z,10.00
2017-05-31T05:39:35.898Z,8.00
2017-05-31T05:40:36.879Z,7.00
2017-05-31T05:41:37.615Z,13.00
2017-05-31T05:42:38.347Z,10.00
2017-05-31T05:43:39.083Z,9.00
2017-05-31T05:44:39.814Z,9.00
2017-05-31T05:45:40.799Z,10.00
2017-05-31T05:46:41.533Z,11.00
2017-05-31T05:47:42.289Z,9.00
2017-05-31T05:48:43.026Z,10.00
2017-05-31T05:49:43.786Z,8.00
2017-05-31T05:50:44.769Z,10.00
2017-05-31T05:51:45.503Z,10.00
2017-05-31T05:52:46.234Z,8.00
2017-05-31T05:53:46.970Z,9.00
2017-05-31T05:54:47.727Z,9.00
2017-05-31T05:55:48.712Z,10.00
2017-05-31T05:56:49.444Z,17.00
2017-05-31T05:57:50.202Z,13.00
2017-05-31T05:58:50.939Z,15.00
2017-05-31T05:59:51.673Z,10.00
2017-05-31T06:00:52.660Z,10.00
2017-05-31T06:01:53.389Z,11.00
2017-05-31T06:02:54.123Z,11.00
2017-05-31T06:03:54.858Z,9.00
2017-05-31T06:04:55.593Z,11.00
2017-05-31T06:05:56.574Z,9.00
2017-05-31T06:06:57.330Z,12.00
2017-05-31T06:07:58.067Z,9.00
2017-05-31T06:08:58.805Z,10.00
2017-05-31T06:09:59.531Z,9.00
2017-05-31T06:11:00.515Z,9.00
2017-05-31T06:12:01.246Z,10.00
2017-05-31T06:13:01.983Z,10.00
2017-05-31T06:14:02.714Z,10.00
2017-05-31T06:15:03.446Z,12.00
2017-05-31T06:16:04.432Z,10.00
2017-05-31T06:17:05.164Z,11.00
2017-05-31T06:18:05.900Z,11.00
2017-05-31T06:19:06.628Z,9.00
2017-05-31T06:20:07.361Z,11.00
2017-05-31T06:21:08.346Z,11.00
2017-05-31T06:22:09.110Z,10.00
2017-05-31T06:23:09.834Z,10.00
2017-05-31T06:24:10.568Z,11.00
2017-05-31T06:25:11.302Z,12.00
2017-05-31T06:26:12.289Z,11.00
2017-05-31T06:27:13.018Z,11.00
2017-05-31T06:28:13.753Z,11.00
2017-05-31T06:29:14.486Z,9.00
2017-05-31T06:30:15.218Z,8.00
2017-05-31T06:31:16.202Z,10.00
2017-05-31T06:32:16.939Z,10.00
2017-05-31T06:33:17.670Z,9.00
2017-05-31T06:34:18.406Z,11.00
2017-05-31T06:35:19.140Z,9.00
2017-05-31T06:36:20.124Z,11.00
2017-05-31T06:37:20.858Z,9.00
2017-05-31T06:38:21.588Z,11.00
2017-05-31T06:39:22.324Z,9.00
2017-05-31T06:40:23.058Z,9.00
2017-05-31T06:41:24.045Z,8.00
2017-05-31T06:42:24.802Z,11.00
2017-05-31T06:43:25.536Z,9.00
2017-05-31T06:44:26.269Z,8.00
2017-05-31T06:45:27.005Z,9.00
2017-05-31T06:46:27.990Z,9.00
2017-05-31T06:47:28.722Z,11.00
2017-05-31T06:48:29.456Z,16.00
2017-05-31T06:49:30.191Z,11.00
2017-05-31T06:50:30.926Z,10.00
2017-05-31T06:51:31.910Z,11.00
2017-05-31T06:52:32.642Z,9.00
2017-05-31T06:53:33.375Z,11.00
2017-05-31T06:54:34.112Z,10.00
2017-05-31T06:55:34.845Z,9.00
2017-05-31T06:56:35.829Z,9.00
2017-05-31T06:57:36.561Z,9.00
2017-05-31T06:58:37.295Z,7.00
2017-05-31T06:59:38.026Z,9.00
2017-05-31T07:00:38.759Z,9.00
2017-05-31T07:01:39.746Z,8.00
2017-05-31T07:02:40.479Z,10.00
2017-05-31T07:03:41.239Z,9.00
2017-05-31T07:04:41.974Z,8.00
2017-05-31T07:05:42.708Z,9.00
2017-05-31T07:06:43.695Z,10.00
2017-05-31T07:07:44.430Z,12.00
2017-05-31T07:08:45.161Z,8.00
2017-05-31T07:09:45.893Z,8.00
2017-05-31T07:10:46.627Z,8.00
2017-05-31T07:11:47.613Z,7.00
2017-05-31T07:12:48.346Z,6.00
2017-05-31T07:13:49.082Z,9.00
2017-05-31T07:14:49.841Z,9.00
2017-05-31T07:15:50.578Z,11.00
2017-05-31T07:16:51.563Z,9.00
2017-05-31T07:17:52.295Z,11.00
2017-05-31T07:18:53.031Z,9.00
2017-05-31T07:19:53.768Z,10.00
2017-05-31T07:20:54.530Z,9.00
2017-05-31T07:21:55.514Z,9.00
2017-05-31T07:22:56.246Z,9.00
2017-05-31T07:23:56.980Z,10.00
2017-05-31T07:24:57.715Z,11.00
2017-05-31T07:25:58.452Z,10.00
2017-05-31T07:26:59.434Z,9.00
2017-05-31T07:28:00.174Z,8.00
2017-05-31T07:29:00.909Z,12.00
2017-05-31T07:30:01.641Z,8.00
2017-05-31T07:31:02.374Z,9.00
2017-05-31T07:32:03.358Z,11.00
2017-05-31T07:33:04.096Z,9.00
2017-05-31T07:34:04.852Z,9.00
2017-05-31T07:35:05.586Z,10.00
2017-05-31T07:36:06.323Z,10.00
2017-05-31T07:37:07.307Z,11.00
2017-05-31T07:38:08.045Z,11.00
2017-05-31T07:39:08.808Z,12.00
2017-05-31T07:40:09.542Z,7.00
2017-05-31T07:41:10.281Z,13.00
2017-05-31T07:42:11.272Z,11.00
2017-05-31T07:43:12.013Z,9.00
2017-05-31T07:44:12.751Z,8.00
2017-05-31T07:45:13.514Z,8.00
2017-05-31T07:46:14.255Z,11.00
2017-05-31T07:47:15.250Z,8.00
2017-05-31T07:48:16.025Z,8.00
2017-05-31T07:49:16.784Z,8.00
2017-05-31T07:50:17.551Z,11.00
2017-05-31T07:51:18.296Z,9.00
2017-05-31T07:52:19.319Z,9.00
2017-05-31T07:53:20.066Z,10.00
2017-05-31T07:54:20.811Z,9.00
2017-05-31T07:55:21.557Z,11.00
2017-05-31T07:56:22.304Z,9.00
2017-05-31T07:57:23.302Z,9.00
2017-05-31T07:58:24.048Z,9.00
2017-05-31T07:59:24.799Z,9.00
2017-05-31T08:00:25.548Z,9.00
2017-05-31T08:01:26.296Z,8.00
2017-05-31T08:02:27.291Z,8.00
2017-05-31T08:03:28.035Z,8.00
2017-05-31T08:04:28.782Z,7.00
2017-05-31T08:05:29.528Z,9.00
2017-05-31T08:06:30.275Z,9.00
2017-05-31T08:07:31.271Z,9.00
2017-05-31T08:08:32.018Z,9.00
2017-05-31T08:09:32.762Z,9.00
2017-05-31T08:10:33.507Z,21.00
2017-05-31T08:11:34.252Z,17.00
2017-05-31T08:12:35.247Z,10.00
2017-05-31T08:13:35.996Z,24.00
2017-05-31T08:14:36.741Z,53.00
2017-05-31T08:15:37.487Z,8.00
2017-05-31T08:16:38.229Z,9.00
2017-05-31T08:17:39.227Z,7.00
2017-05-31T08:18:39.968Z,9.00
2017-05-31T08:19:40.712Z,7.00
2017-05-31T08:20:41.456Z,8.00
2017-05-31T08:21:42.224Z,9.00
2017-05-31T08:22:43.215Z,9.00
2017-05-31T08:23:43.958Z,7.00
2017-05-31T08:24:44.702Z,9.00
2017-05-31T08:25:45.447Z,10.00
2017-05-31T08:26:46.191Z,9.00
2017-05-31T08:27:47.183Z,9.00
2017-05-31T08:28:47.924Z,9.00
2017-05-31T08:29:48.666Z,8.00
2017-05-31T08:30:49.413Z,8.00
2017-05-31T08:31:50.160Z,10.00
2017-05-31T08:32:51.155Z,7.00
2017-05-31T08:33:51.898Z,8.00
2017-05-31T08:34:52.641Z,8.00
2017-05-31T08:35:53.383Z,8.00
2017-05-31T08:36:54.149Z,7.00
2017-05-31T08:37:55.144Z,8.00
2017-05-31T08:38:55.889Z,10.00
2017-05-31T08:39:56.637Z,10.00
2017-05-31T08:40:57.380Z,8.00
2017-05-31T08:41:58.126Z,20.00
2017-05-31T08:42:59.121Z,8.00
2017-05-31T08:43:59.865Z,9.00
2017-05-31T08:45:00.615Z,8.00
2017-05-31T08:46:01.357Z,9.00
2017-05-31T08:47:02.100Z,7.00
2017-05-31T08:48:03.097Z,8.00
2017-05-31T08:49:03.838Z,8.00
2017-05-31T08:50:04.584Z,7.00
2017-05-31T08:51:05.325Z,6.00
2017-05-31T08:52:06.069Z,6.00
2017-05-31T08:53:07.063Z,8.00
2017-05-31T08:54:07.810Z,7.00
2017-05-31T08:55:08.558Z,7.00
2017-05-31T08:56:09.298Z,7.00
2017-05-31T08:57:10.041Z,6.00
2017-05-31T08:58:11.037Z,7.00
2017-05-31T08:59:11.801Z,7.00
2017-05-31T09:00:12.547Z,5.00
2017-05-31T09:01:13.290Z,6.00
2017-05-31T09:02:14.034Z,5.00
2017-05-31T09:03:15.030Z,7.00
2017-05-31T09:04:15.774Z,6.00
2017-05-31T09:05:16.512Z,5.00
2017-05-31T09:06:17.255Z,5.00
2017-05-31T09:07:17.999Z,6.00
2017-05-31T09:08:18.994Z,5.00
2017-05-31T09:09:19.734Z,10.00
2017-05-31T09:10:20.477Z,6.00
2017-05-31T09:11:21.216Z,8.00
2017-05-31T09:12:21.956Z,9.00
2017-05-31T09:13:22.946Z,7.00
2017-05-31T09:14:23.688Z,5.00
2017-05-31T09:15:24.431Z,5.00
2017-05-31T09:16:25.177Z,8.00
2017-05-31T09:17:25.921Z,7.00
2017-05-31T09:18:26.911Z,6.00
2017-05-31T09:19:27.651Z,7.00
2017-05-31T09:20:28.394Z,7.00
2017-05-31T09:21:29.140Z,5.00
2017-05-31T09:22:29.884Z,5.00
2017-05-31T09:23:30.878Z,5.00
2017-05-31T09:24:31.624Z,6.00
2017-05-31T09:25:32.365Z,7.00
2017-05-31T09:26:33.106Z,6.00
2017-05-31T09:27:33.851Z,5.00
2017-05-31T09:28:34.844Z,4.00
2017-05-31T09:29:35.587Z,5.00
2017-05-31T09:30:36.359Z,5.00
2017-05-31T09:31:37.103Z,6.00
2017-05-31T09:32:37.848Z,6.00
2017-05-31T09:33:38.838Z,6.00
2017-05-31T09:34:39.583Z,5.00
2017-05-31T09:35:40.325Z,6.00
2017-05-31T09:36:41.093Z,6.00
2017-05-31T09:37:41.862Z,5.00
2017-05-31T09:38:42.859Z,7.00
2017-05-31T09:39:43.621Z,5.00
2017-05-31T09:40:44.365Z,7.00
2017-05-31T09:41:45.105Z,6.00
2017-05-31T09:42:45.848Z,4.00
2017-05-31T09:43:46.840Z,6.00
2017-05-31T09:44:47.584Z,6.00
2017-05-31T09:45:48.330Z,5.00
2017-05-31T09:46:49.072Z,7.00
2017-05-31T09:47:49.814Z,4.00
2017-05-31T09:48:50.813Z,6.00
2017-05-31T09:49:51.556Z,4.00
2017-05-31T09:50:52.305Z,5.00
2017-05-31T09:51:53.049Z,5.00
2017-05-31T09:52:53.822Z,6.00
2017-05-31T09:53:54.819Z,5.00
2017-05-31T09:54:55.567Z,6.00
2017-05-31T09:55:56.312Z,6.00
2017-05-31T09:56:57.061Z,6.00
2017-05-31T09:57:57.805Z,4.00
2017-05-31T09:58:58.799Z,5.00
2017-05-31T09:59:59.544Z,5.00
2017-05-31T10:01:00.291Z,4.00
2017-05-31T10:02:01.059Z,4.00
2017-05-31T10:03:01.802Z,5.00
2017-05-31T10:04:02.798Z,5.00
2017-05-31T10:05:03.544Z,5.00
2017-05-31T10:06:04.287Z,7.00
2017-05-31T10:07:05.034Z,5.00
2017-05-31T10:08:05.774Z,5.00
2017-05-31T10:09:06.766Z,6.00
2017-05-31T10:10:07.509Z,5.00
2017-05-31T10:11:08.249Z,4.00
2017-05-31T10:12:08.994Z,5.00
2017-05-31T10:13:09.736Z,5.00
2017-05-31T10:14:10.725Z,7.00
2017-05-31T10:15:11.468Z,6.00
2017-05-31T10:16:12.213Z,5.00
2017-05-31T10:17:12.957Z,5.00
2017-05-31T10:18:13.695Z,5.00
2017-05-31T10:19:14.686Z,5.00
2017-05-31T10:20:15.431Z,4.00
2017-05-31T10:21:16.170Z,4.00
2017-05-31T10:22:16.914Z,5.00
2017-05-31T10:23:17.655Z,5.00
2017-05-31T10:24:18.648Z,5.00
2017-05-31T10:25:19.390Z,5.00
2017-05-31T10:26:20.133Z,5.00
2017-05-31T10:27:20.878Z,5.00
2017-05-31T10:28:21.620Z,5.00
2017-05-31T10:29:22.618Z,6.00
2017-05-31T10:30:23.362Z,5.00
2017-05-31T10:31:24.106Z,4.00
2017-05-31T10:32:24.849Z,5.00
2017-05-31T10:33:25.597Z,4.00
2017-05-31T10:34:26.591Z,4.00
2017-05-31T10:35:27.342Z,5.00
2017-05-31T10:36:28.085Z,4.00
2017-05-31T10:37:28.831Z,4.00
2017-05-31T10:38:29.578Z,4.00
2017-05-31T10:39:30.574Z,5.00
2017-05-31T10:40:31.321Z,5.00
2017-05-31T10:41:32.065Z,5.00
2017-05-31T10:42:32.814Z,4.00
2017-05-31T10:43:33.559Z,5.00
2017-05-31T10:44:34.580Z,5.00
2017-05-31T10:45:35.320Z,4.00
2017-05-31T10:46:36.065Z,4.00
2017-05-31T10:47:36.806Z,4.00
2017-05-31T10:48:37.575Z,4.00
2017-05-31T10:49:38.565Z,3.00
2017-05-31T10:50:39.308Z,6.00
2017-05-31T10:51:40.071Z,5.00
2017-05-31T10:52:40.815Z,5.00
2017-05-31T10:53:41.554Z,5.00
2017-05-31T10:54:42.543Z,4.00
2017-05-31T10:55:43.286Z,4.00
2017-05-31T10:56:44.026Z,4.00
2017-05-31T10:57:44.766Z,4.00
2017-05-31T10:58:45.511Z,5.00
2017-05-31T10:59:46.497Z,5.00
2017-05-31T11:00:47.238Z,5.00
2017-05-31T11:01:47.975Z,5.00
2017-05-31T11:02:48.716Z,4.00
2017-05-31T11:03:49.481Z,5.00
2017-05-31T11:04:50.474Z,4.00
2017-05-31T11:05:51.216Z,5.00
2017-05-31T11:06:51.957Z,4.00
2017-05-31T11:07:52.699Z,5.00
2017-05-31T11:08:53.447Z,4.00
2017-05-31T11:09:54.438Z,5.00
2017-05-31T11:10:55.185Z,4.00
2017-05-31T11:11:55.955Z,5.00
2017-05-31T11:12:56.729Z,4.00
2017-05-31T11:13:57.473Z,4.00
2017-05-31T11:14:58.472Z,5.00
2017-05-31T11:15:59.221Z,5.00
2017-05-31T11:16:59.969Z,4.00
2017-05-31T11:18:00.718Z,4.00
2017-05-31T11:19:01.476Z,5.00
2017-05-31T11:20:02.489Z,4.00
2017-05-31T11:21:03.240Z,3.00
2017-05-31T11:22:03.991Z,4.00
2017-05-31T11:23:04.744Z,5.00
2017-05-31T11:24:05.503Z,3.00
2017-05-31T11:25:06.513Z,3.00
2017-05-31T11:26:07.272Z,3.00
2017-05-31T11:27:08.027Z,3.00
2017-05-31T11:28:08.806Z,3.00
2017-05-31T11:29:09.585Z,12.00
2017-05-31T11:30:10.589Z,3.00
2017-05-31T11:31:11.345Z,5.00
2017-05-31T11:32:12.098Z,5.00
2017-05-31T11:33:12.851Z,4.00
2017-05-31T11:34:13.606Z,2.00
2017-05-31T11:35:14.609Z,3.00
2017-05-31T11:36:15.366Z,3.00
2017-05-31T11:37:16.124Z,5.00
2017-05-31T11:38:16.874Z,4.00
2017-05-31T11:39:17.626Z,5.00
2017-05-31T11:40:18.629Z,5.00
2017-05-31T11:41:19.376Z,4.00
2017-05-31T11:42:20.120Z,5.00
2017-05-31T11:43:20.891Z,4.00
2017-05-31T11:44:21.634Z,4.00
2017-05-31T11:45:22.634Z,4.00
2017-05-31T11:46:23.382Z,4.00
2017-05-31T11:47:24.137Z,5.00
2017-05-31T11:48:24.878Z,4.00
2017-05-31T11:49:25.619Z,5.00
2017-05-31T11:50:26.613Z,3.00
2017-05-31T11:51:27.356Z,4.00
2017-05-31T11:52:28.098Z,5.00
2017-05-31T11:53:28.843Z,4.00
2017-05-31T11:54:29.614Z,4.00
2017-05-31T11:55:30.609Z,4.00
2017-05-31T11:56:31.353Z,3.00
2017-05-31T11:57:32.121Z,3.00
2017-05-31T11:58:32.865Z,4.00
2017-05-31T11:59:33.637Z,4.00
2017-05-31T12:00:34.629Z,4.00
2017-05-31T12:01:35.375Z,5.00
2017-05-31T12:02:36.115Z,3.00
2017-05-31T12:03:36.859Z,3.00
2017-05-31T12:04:37.656Z,4.00
2017-05-31T12:05:38.593Z,4.00
2017-05-31T12:06:39.333Z,4.00
2017-05-31T12:07:40.101Z,4.00
2017-05-31T12:08:40.841Z,4.00
2017-05-31T12:09:41.638Z,5.00
2017-05-31T12:10:42.571Z,6.00
2017-05-31T12:11:43.310Z,8.00
2017-05-31T12:12:44.049Z,10.00
2017-05-31T12:13:44.792Z,11.00
2017-05-31T12:14:45.534Z,7.00
2017-05-31T12:15:46.520Z,6.00
2017-05-31T12:16:47.261Z,4.00
2017-05-31T12:17:48.024Z,7.00
2017-05-31T12:18:48.790Z,5.00
2017-05-31T12:19:49.556Z,4.00
2017-05-31T12:20:50.544Z,6.00
2017-05-31T12:21:51.284Z,5.00
2017-05-31T12:22:52.020Z,5.00
2017-05-31T12:23:52.756Z,6.00
2017-05-31T12:24:53.497Z,6.00
2017-05-31T12:25:54.483Z,6.00
2017-05-31T12:26:55.220Z,6.00
2017-05-31T12:27:55.956Z,6.00
2017-05-31T12:28:56.695Z,6.00
2017-05-31T12:29:57.437Z,6.00
2017-05-31T12:30:58.425Z,5.00
2017-05-31T12:31:59.165Z,6.00
2017-05-31T12:32:59.905Z,6.00
2017-05-31T12:34:00.642Z,4.00
2017-05-31T12:35:01.384Z,6.00
2017-05-31T12:36:02.372Z,5.00
2017-05-31T12:37:03.134Z,5.00
2017-05-31T12:38:03.871Z,5.00
2017-05-31T12:39:04.613Z,6.00
2017-05-31T12:40:05.348Z,4.00
2017-05-31T12:41:06.335Z,5.00
2017-05-31T12:42:07.069Z,6.00
2017-05-31T12:43:07.804Z,6.00
2017-05-31T12:44:08.570Z,6.00
2017-05-31T12:45:09.310Z,5.00
2017-05-31T12:46:10.294Z,6.00
2017-05-31T12:47:11.032Z,6.00
2017-05-31T12:48:11.768Z,6.00
2017-05-31T12:49:12.506Z,5.00
2017-05-31T12:50:13.242Z,7.00
2017-05-31T12:51:14.226Z,6.00
2017-05-31T12:52:14.988Z,6.00
2017-05-31T12:53:15.721Z,6.00
2017-05-31T12:54:16.458Z,7.00
2017-05-31T12:55:17.193Z,6.00
2017-05-31T12:56:18.181Z,9.00
2017-05-31T12:57:18.919Z,6.00
2017-05-31T12:58:19.654Z,8.00
2017-05-31T12:59:20.391Z,7.00
2017-05-31T13:00:21.132Z,9.00
2017-05-31T13:01:22.143Z,8.00
2017-05-31T13:02:22.878Z,6.00
2017-05-31T13:03:23.614Z,9.00
2017-05-31T13:04:24.349Z,8.00
2017-05-31T13:05:25.083Z,7.00
2017-05-31T13:06:26.072Z,7.00
2017-05-31T13:07:26.806Z,7.00
2017-05-31T13:08:27.544Z,7.00
2017-05-31T13:09:28.279Z,7.00
2017-05-31T13:10:29.015Z,6.00
2017-05-31T13:11:30.006Z,7.00
2017-05-31T13:12:30.745Z,7.00
2017-05-31T13:13:31.487Z,8.00
2017-05-31T13:14:32.224Z,7.00
2017-05-31T13:15:32.962Z,8.00
2017-05-31T13:16:33.954Z,9.00
2017-05-31T13:17:34.691Z,6.00
2017-05-31T13:18:35.432Z,6.00
2017-05-31T13:19:36.176Z,7.00
2017-05-31T13:20:36.918Z,6.00
2017-05-31T13:21:37.913Z,5.00
2017-05-31T13:22:38.654Z,5.00
2017-05-31T13:23:39.405Z,6.00
2017-05-31T13:24:40.138Z,7.00
2017-05-31T13:25:40.880Z,6.00